createdAt,value
2023-01-12T00:01:30.477Z,11.73
2023-01-12T00:03:57.198Z,16.40
2023-01-12T00:06:24.419Z,11.45
2023-01-12T00:08:52.171Z,22.15
2023-01-12T00:11:19.844Z,14.82
2023-01-12T00:13:46.213Z,19.60
2023-01-12T00:16:36.546Z,15.50
2023-01-12T00:19:13.463Z,17.20
2023-01-12T00:21:50.328Z,9.55
2023-01-12T00:24:18.319Z,14.13
2023-01-12T00:26:45.896Z,25.90
2023-01-12T00:29:12.360Z,14.25
2023-01-12T00:31:38.680Z,16.02
2023-01-12T00:34:05.081Z,16.13
2023-01-12T00:36:31.405Z,14.82
2023-01-12T00:38:57.707Z,9.45
2023-01-12T00:41:42.751Z,15.15
2023-01-12T00:44:27.442Z,14.48
2023-01-12T00:46:53.791Z,19.17
2023-01-12T00:49:20.116Z,14.27
2023-01-12T00:51:46.559Z,16.20
2023-01-12T00:54:12.853Z,15.60
2023-01-12T00:56:39.481Z,13.20
2023-01-12T00:59:06.427Z,19.63
2023-01-12T01:01:34.323Z,14.30
2023-01-12T01:04:01.486Z,14.95
2023-01-12T01:06:27.850Z,11.02
2023-01-12T01:08:54.182Z,13.95
2023-01-12T01:11:20.534Z,19.42
2023-01-12T01:13:46.840Z,13.45
2023-01-12T01:16:15.265Z,16.70
2023-01-12T01:18:42.926Z,14.95
2023-01-12T01:21:11.431Z,12.90
2023-01-12T01:23:38.530Z,14.82
2023-01-12T01:26:08.171Z,18.17
2023-01-12T01:28:35.557Z,12.88
2023-01-12T01:31:06.970Z,16.90
2023-01-12T01:33:33.582Z,17.77
2023-01-12T01:36:00.091Z,13.35
2023-01-12T01:38:27.029Z,17.63
2023-01-12T01:40:53.951Z,14.00
2023-01-12T01:43:23.559Z,13.90
2023-01-12T01:46:08.176Z,13.40
2023-01-12T01:48:38.534Z,17.90
2023-01-12T01:51:10.007Z,7.50
2023-01-12T01:53:39.579Z,8.50
2023-01-12T01:56:11.503Z,11.50
2023-01-12T01:58:44.819Z,10.00
2023-01-12T02:01:11.176Z,12.45
2023-01-12T02:03:38.263Z,9.93
2023-01-12T02:06:06.963Z,11.00
2023-01-12T02:08:55.984Z,9.18
2023-01-12T02:11:41.046Z,11.85
2023-01-12T02:14:27.868Z,14.73
2023-01-12T02:17:12.384Z,10.35
2023-01-12T02:20:12.977Z,9.70
2023-01-12T02:23:06.501Z,8.67
2023-01-12T02:25:44.448Z,13.45
2023-01-12T02:28:39.872Z,12.15
2023-01-12T02:31:33.697Z,10.57
2023-01-12T02:34:14.283Z,12.73
2023-01-12T02:37:12.271Z,12.00
2023-01-12T02:39:46.664Z,11.80
2023-01-12T02:42:43.266Z,10.13
2023-01-12T02:45:25.319Z,11.00
2023-01-12T02:48:00.103Z,11.20
2023-01-12T02:50:43.834Z,12.02
2023-01-12T02:53:20.818Z,18.27
2023-01-12T02:55:48.320Z,10.35
2023-01-12T02:58:18.469Z,11.57
2023-01-12T03:00:48.305Z,8.63
2023-01-12T03:03:17.147Z,9.18
2023-01-12T03:05:43.883Z,11.57
2023-01-12T03:08:16.004Z,7.88
2023-01-12T03:10:42.748Z,12.40
2023-01-12T03:13:13.526Z,5.32
2023-01-12T03:15:44.462Z,19.35
2023-01-12T03:18:25.693Z,17.38
2023-01-12T03:21:00.994Z,11.32
2023-01-12T03:23:54.287Z,12.55
2023-01-12T03:26:25.304Z,9.25
2023-01-12T03:28:58.461Z,16.75
2023-01-12T03:31:24.849Z,9.18
2023-01-12T03:33:51.347Z,8.63
2023-01-12T03:36:48.995Z,11.15
2023-01-12T03:39:36.662Z,15.18
2023-01-12T03:42:11.124Z,12.98
2023-01-12T03:44:37.458Z,13.70
2023-01-12T03:47:19.816Z,16.10
2023-01-12T03:49:53.060Z,8.02
2023-01-12T03:52:22.345Z,12.98
2023-01-12T03:54:50.941Z,13.30
2023-01-12T03:57:17.638Z,13.30
2023-01-12T03:59:44.042Z,18.50
2023-01-12T04:02:10.447Z,16.25
2023-01-12T04:04:36.790Z,6.65
2023-01-12T04:07:03.134Z,10.52
2023-01-12T04:09:29.512Z,11.40
2023-01-12T04:12:11.074Z,14.07
2023-01-12T04:14:47.647Z,12.23
2023-01-12T04:17:15.222Z,6.75
2023-01-12T04:19:42.203Z,8.55
2023-01-12T04:22:28.354Z,11.85
2023-01-12T04:24:54.723Z,6.72
2023-01-12T04:27:21.031Z,12.30
2023-01-12T04:29:47.399Z,8.95
2023-01-12T04:32:13.784Z,5.30
2023-01-12T04:34:40.184Z,10.18
2023-01-12T04:37:06.621Z,6.00
2023-01-12T04:39:32.919Z,8.00
2023-01-12T04:41:59.234Z,7.20
2023-01-12T04:44:25.541Z,8.23
2023-01-12T04:46:51.911Z,7.10
2023-01-12T04:49:18.458Z,5.20
2023-01-12T04:51:45.170Z,4.00
2023-01-12T04:54:11.685Z,5.63
2023-01-12T04:56:38.148Z,7.15
2023-01-12T04:59:06.753Z,6.35
2023-01-12T05:01:33.242Z,5.88
2023-01-12T05:04:03.069Z,4.57
2023-01-12T05:06:29.428Z,5.32
2023-01-12T05:09:14.358Z,3.05
2023-01-12T05:11:40.678Z,7.72
2023-01-12T05:14:07.069Z,7.93
2023-01-12T05:16:33.702Z,5.50
2023-01-12T05:19:00.037Z,7.35
2023-01-12T05:21:26.338Z,4.93
2023-01-12T05:23:52.963Z,7.07
2023-01-12T05:26:19.860Z,9.18
2023-01-12T05:28:50.149Z,6.28
2023-01-12T05:31:17.070Z,4.93
2023-01-12T05:33:43.508Z,4.15
2023-01-12T05:36:13.593Z,4.05
2023-01-12T05:38:40.494Z,5.40
2023-01-12T05:41:10.112Z,2.63
2023-01-12T05:43:51.715Z,5.07
2023-01-12T05:46:28.009Z,2.47
2023-01-12T05:48:55.765Z,4.05
2023-01-12T05:51:25.089Z,7.10
2023-01-12T05:53:51.688Z,4.55
2023-01-12T05:56:25.542Z,4.90
2023-01-12T05:58:53.354Z,5.85
2023-01-12T06:01:20.492Z,4.35
2023-01-12T06:03:58.748Z,5.10
2023-01-12T06:06:27.772Z,3.83
2023-01-12T06:08:54.397Z,5.88
2023-01-12T06:11:40.040Z,6.70
2023-01-12T06:14:07.770Z,2.65
2023-01-12T06:16:37.269Z,11.23
2023-01-12T06:19:03.618Z,3.22
2023-01-12T06:21:32.451Z,6.03
2023-01-12T06:23:58.763Z,5.82
2023-01-12T06:26:25.253Z,3.97
2023-01-12T06:28:51.606Z,6.13
2023-01-12T06:31:17.935Z,5.97
2023-01-12T06:33:44.310Z,4.10
2023-01-12T06:36:11.400Z,3.80
2023-01-12T06:38:37.972Z,6.10
2023-01-12T06:41:06.757Z,4.30
2023-01-12T06:43:33.686Z,8.13
2023-01-12T06:46:00.148Z,4.68
2023-01-12T06:48:26.591Z,3.85
2023-01-12T06:51:05.873Z,7.72
2023-01-12T06:53:32.229Z,4.00
2023-01-12T06:55:58.561Z,5.47
2023-01-12T06:58:24.928Z,2.90
2023-01-12T07:00:51.291Z,7.03
2023-01-12T07:03:19.511Z,4.88
2023-01-12T07:05:46.386Z,6.65
2023-01-12T07:08:15.886Z,5.30
2023-01-12T07:10:42.775Z,3.42
2023-01-12T07:13:09.082Z,6.72
2023-01-12T07:15:35.652Z,9.27
2023-01-12T07:18:02.179Z,5.03
2023-01-12T07:20:28.631Z,4.68
2023-01-12T07:22:55.857Z,6.93
2023-01-12T07:25:23.047Z,8.43
2023-01-12T07:27:51.630Z,3.33
2023-01-12T07:30:20.109Z,6.30
2023-01-12T07:32:46.506Z,6.95
2023-01-12T07:35:13.006Z,4.50
2023-01-12T07:37:39.348Z,4.45
2023-01-12T07:40:06.289Z,4.97
2023-01-12T07:42:33.364Z,2.95
2023-01-12T07:44:59.713Z,7.60
2023-01-12T07:47:27.879Z,6.72
2023-01-12T07:49:54.202Z,10.07
2023-01-12T07:52:20.484Z,5.05
2023-01-12T07:54:46.799Z,4.97
2023-01-12T07:57:13.200Z,9.35
2023-01-12T07:59:39.635Z,9.55
2023-01-12T08:02:07.093Z,10.85
2023-01-12T08:04:33.957Z,18.80
2023-01-12T08:07:00.286Z,11.02
2023-01-12T08:09:27.794Z,20.70
2023-01-12T08:11:54.095Z,13.43
2023-01-12T08:14:28.069Z,9.13
2023-01-12T08:16:56.514Z,5.68
2023-01-12T08:19:26.564Z,10.85
2023-01-12T08:21:58.713Z,9.85
2023-01-12T08:24:33.971Z,9.75
2023-01-12T08:27:04.489Z,6.60
2023-01-12T08:29:41.930Z,10.32
2023-01-12T08:32:09.410Z,9.32
2023-01-12T08:34:38.452Z,10.73
2023-01-12T08:37:07.869Z,7.05
2023-01-12T08:39:35.257Z,12.45
2023-01-12T08:42:02.408Z,8.07
2023-01-12T08:44:34.551Z,8.23
2023-01-12T08:47:01.316Z,10.82
2023-01-12T08:49:29.775Z,8.55
2023-01-12T08:51:56.321Z,6.35
2023-01-12T08:54:23.087Z,6.85
2023-01-12T08:56:49.791Z,7.25
2023-01-12T08:59:16.501Z,5.97
2023-01-12T09:01:42.962Z,9.88
2023-01-12T09:04:09.408Z,4.88
2023-01-12T09:06:40.876Z,5.97
2023-01-12T09:09:13.429Z,4.20
2023-01-12T09:11:41.492Z,3.88
2023-01-12T09:14:08.596Z,3.70
2023-01-12T09:16:35.097Z,5.07
2023-01-12T09:19:01.748Z,4.20
2023-01-12T09:21:30.263Z,4.57
2023-01-12T09:23:57.286Z,4.00
2023-01-12T09:26:31.991Z,6.55
2023-01-12T09:28:59.627Z,5.20
2023-01-12T09:31:27.317Z,7.47
2023-01-12T09:33:54.504Z,5.90
2023-01-12T09:36:23.557Z,2.22
2023-01-12T09:38:50.175Z,3.63
2023-01-12T09:41:16.502Z,4.88
2023-01-12T09:44:02.007Z,3.03
2023-01-12T09:46:56.856Z,4.32
2023-01-12T09:49:31.826Z,2.90
2023-01-12T09:52:16.207Z,3.85
2023-01-12T09:54:43.417Z,3.60
2023-01-12T09:57:46.765Z,3.90
2023-01-12T10:00:15.785Z,3.25
2023-01-12T10:02:47.079Z,2.95
2023-01-12T10:05:40.040Z,3.53
2023-01-12T10:08:15.993Z,2.08
2023-01-12T10:10:55.198Z,4.85
2023-01-12T10:13:22.296Z,2.03
2023-01-12T10:15:57.236Z,15.55
2023-01-12T10:18:33.293Z,6.75
2023-01-12T10:21:00.033Z,6.50
2023-01-12T10:23:27.847Z,2.95
2023-01-12T10:26:13.319Z,4.35
2023-01-12T10:28:44.572Z,4.80
2023-01-12T10:34:02.000Z,5.13
2023-01-12T10:36:29.459Z,6.47
2023-01-12T10:39:00.846Z,6.85
2023-01-12T10:41:28.467Z,12.07
2023-01-12T10:43:54.775Z,16.35
2023-01-12T10:46:23.986Z,13.02
2023-01-12T10:48:53.883Z,3.63
2023-01-12T10:51:30.160Z,7.78
2023-01-12T10:54:17.579Z,5.05
2023-01-12T10:57:03.973Z,2.72
2023-01-12T10:59:38.081Z,3.78
2023-01-12T11:02:13.938Z,5.90
2023-01-12T11:04:48.940Z,7.32
2023-01-12T11:07:31.570Z,6.95
2023-01-12T11:10:19.827Z,9.07
2023-01-12T11:12:57.121Z,8.88
2023-01-12T11:15:23.525Z,2.97
2023-01-12T11:18:03.553Z,4.82
2023-01-12T11:20:40.772Z,5.07
2023-01-12T11:23:19.020Z,4.07
2023-01-12T11:25:47.621Z,3.45
2023-01-12T11:28:35.222Z,3.33
2023-01-12T11:31:21.585Z,7.15
2023-01-12T11:34:24.885Z,4.93
2023-01-12T11:36:59.102Z,5.28
2023-01-12T11:39:28.719Z,3.65
2023-01-12T11:42:18.740Z,1.52
2023-01-12T11:45:23.120Z,4.85
2023-01-12T11:47:58.168Z,4.00
2023-01-12T11:50:28.952Z,3.97
2023-01-12T11:52:56.178Z,2.60
2023-01-12T11:55:42.880Z,3.95
2023-01-12T11:58:35.980Z,2.15
2023-01-12T12:01:31.767Z,4.45
2023-01-12T12:04:03.961Z,1.50
2023-01-12T12:06:45.191Z,3.35
2023-01-12T12:09:17.590Z,3.50
2023-01-12T12:12:00.843Z,2.40
2023-01-12T12:15:04.086Z,3.08
2023-01-12T12:18:00.226Z,3.35
2023-01-12T12:20:42.557Z,3.92
2023-01-12T12:23:37.088Z,1.58
2023-01-12T12:26:23.955Z,2.53
2023-01-12T12:29:20.605Z,6.85
2023-01-12T12:32:08.668Z,1.88
2023-01-12T12:35:00.131Z,2.42
2023-01-12T12:40:55.643Z,2.42
2023-01-12T12:43:54.157Z,2.22
2023-01-12T12:46:47.334Z,3.67
2023-01-12T12:49:22.105Z,2.15
2023-01-12T12:51:50.871Z,1.23
2023-01-12T12:54:20.249Z,1.35
2023-01-12T12:56:48.520Z,0.57
2023-01-12T12:59:32.919Z,3.78
2023-01-12T13:02:01.230Z,2.55
2023-01-12T13:04:42.724Z,1.42
2023-01-12T13:07:16.594Z,0.77
2023-01-12T13:09:43.701Z,0.80
2023-01-12T13:12:30.149Z,0.47
2023-01-12T13:15:23.558Z,1.38
2023-01-12T13:17:52.767Z,3.75
2023-01-12T13:20:25.623Z,1.30
2023-01-12T13:22:52.743Z,3.75
2023-01-12T13:25:27.076Z,5.10
2023-01-12T13:27:59.935Z,3.55
2023-01-12T13:30:26.237Z,8.50
2023-01-12T13:33:14.617Z,4.78
2023-01-12T13:35:44.078Z,11.18
2023-01-12T13:38:25.414Z,8.10
2023-01-12T13:43:31.949Z,5.90
2023-01-12T13:46:14.501Z,10.95
2023-01-12T13:48:45.507Z,11.43
2023-01-12T13:51:33.347Z,14.82
2023-01-12T13:54:06.064Z,11.60
2023-01-12T13:56:33.117Z,9.52
2023-01-12T13:59:02.268Z,15.48
2023-01-12T14:01:33.325Z,20.27
2023-01-12T14:04:11.761Z,13.68
2023-01-12T14:07:04.561Z,8.27
2023-01-12T14:10:05.203Z,10.70
2023-01-12T14:12:55.953Z,9.93
2023-01-12T14:15:56.472Z,16.00
2023-01-12T14:18:25.570Z,8.47
2023-01-12T14:20:53.095Z,12.63
2023-01-12T14:23:28.822Z,14.38
2023-01-12T14:26:14.738Z,8.80
2023-01-12T14:28:46.370Z,9.98
2023-01-12T14:31:24.003Z,3.28
2023-01-12T14:33:53.501Z,3.15
2023-01-12T14:36:27.143Z,4.25
2023-01-12T14:38:54.635Z,1.55
2023-01-12T14:41:43.593Z,1.83
2023-01-12T14:44:39.238Z,1.98
2023-01-12T14:47:05.682Z,0.82
2023-01-12T14:49:35.164Z,3.95
2023-01-12T14:52:21.859Z,1.65
2023-01-12T14:54:48.676Z,0.20
2023-01-12T14:57:28.549Z,0.90
2023-01-12T14:59:55.141Z,1.38
2023-01-12T15:02:37.211Z,1.85
2023-01-12T15:05:19.011Z,1.20
2023-01-12T15:08:03.783Z,1.48
2023-01-12T15:10:33.902Z,1.10
2023-01-12T15:13:25.382Z,0.47
2023-01-12T15:18:56.089Z,0.60
2023-01-12T15:21:42.509Z,0.90
2023-01-12T15:24:48.605Z,1.73
2023-01-12T15:27:17.329Z,1.98
2023-01-12T15:29:44.350Z,0.40
2023-01-12T15:32:16.723Z,0.68
2023-01-12T15:34:43.040Z,0.40
2023-01-12T15:37:18.301Z,0.38
2023-01-12T15:39:45.308Z,0.80
2023-01-12T15:42:16.277Z,0.98
2023-01-12T15:44:47.099Z,1.70
2023-01-12T15:47:15.382Z,1.52
2023-01-12T15:49:44.068Z,1.88
2023-01-12T15:52:13.789Z,1.23
2023-01-12T15:54:41.246Z,2.22
2023-01-12T15:57:11.816Z,2.67
2023-01-12T15:59:38.889Z,1.52
2023-01-12T16:02:24.756Z,0.50
2023-01-12T16:04:51.178Z,0.57
2023-01-12T16:07:17.633Z,0.93
2023-01-12T16:09:47.519Z,2.45
2023-01-12T16:12:14.875Z,5.35
2023-01-12T16:14:41.313Z,4.93
2023-01-12T16:17:07.745Z,2.22
2023-01-12T16:19:40.799Z,1.35
2023-01-12T16:22:13.959Z,2.22
2023-01-12T16:24:40.570Z,3.15
2023-01-12T16:27:06.927Z,1.17
2023-01-12T16:29:33.407Z,3.05
2023-01-12T16:31:59.811Z,5.78
2023-01-12T16:34:26.523Z,2.25
2023-01-12T16:36:52.862Z,0.85
2023-01-12T16:39:19.541Z,2.08
2023-01-12T16:41:45.856Z,0.80
2023-01-12T16:44:12.157Z,1.50
2023-01-12T16:46:38.451Z,2.13
2023-01-12T16:49:05.146Z,5.25
2023-01-12T16:51:34.382Z,2.80
2023-01-12T16:54:02.586Z,5.75
2023-01-12T16:56:29.275Z,6.20
2023-01-12T16:58:57.318Z,8.57
2023-01-12T17:01:24.575Z,10.15
2023-01-12T17:03:52.458Z,11.63
2023-01-12T17:06:20.836Z,13.48
2023-01-12T17:08:47.479Z,10.38
2023-01-12T17:11:19.119Z,6.93
2023-01-12T17:13:52.310Z,6.53
2023-01-12T17:16:19.007Z,3.63
2023-01-12T17:18:45.777Z,3.90
2023-01-12T17:21:13.910Z,2.72
2023-01-12T17:23:42.183Z,7.38
2023-01-12T17:26:12.965Z,3.55
2023-01-12T17:28:40.911Z,3.47
2023-01-12T17:31:09.421Z,6.03
2023-01-12T17:33:36.457Z,2.50
2023-01-12T17:36:08.324Z,4.57
2023-01-12T17:38:36.124Z,4.72
2023-01-12T17:41:30.197Z,2.45
2023-01-12T17:43:57.286Z,3.63
2023-01-12T17:46:24.081Z,3.65
2023-01-12T17:48:50.454Z,6.65
2023-01-12T17:51:16.941Z,3.22
2023-01-12T17:53:43.348Z,3.83
2023-01-12T17:56:10.885Z,5.47
2023-01-12T17:58:37.255Z,2.90
2023-01-12T18:01:11.013Z,4.10
2023-01-12T18:03:37.367Z,4.82
2023-01-12T18:06:09.008Z,3.95
2023-01-12T18:08:38.134Z,2.42
2023-01-12T18:11:06.725Z,3.78
2023-01-12T18:13:35.373Z,2.33
2023-01-12T18:16:02.036Z,3.20
2023-01-12T18:18:31.863Z,2.60
2023-01-12T18:21:10.530Z,4.53
2023-01-12T18:23:38.649Z,1.77
2023-01-12T18:26:07.756Z,2.88
2023-01-12T18:28:34.186Z,3.83
2023-01-12T18:31:05.782Z,5.00
2023-01-12T18:33:32.284Z,4.43
2023-01-12T18:35:58.739Z,3.97
2023-01-12T18:38:26.927Z,3.85
2023-01-12T18:41:26.104Z,2.63
2023-01-12T18:43:53.071Z,1.27
2023-01-12T18:46:19.475Z,1.17
2023-01-12T18:48:47.167Z,1.25
2023-01-12T18:51:33.277Z,1.85
2023-01-12T18:54:00.479Z,0.55
2023-01-12T18:56:26.844Z,0.90
2023-01-12T18:58:53.243Z,1.70
2023-01-12T19:01:22.609Z,2.33
2023-01-12T19:03:49.682Z,15.70
2023-01-12T19:06:24.669Z,6.00
2023-01-12T19:09:10.759Z,4.05
2023-01-12T19:11:38.433Z,1.95
2023-01-12T19:14:24.064Z,3.00
2023-01-12T19:17:08.798Z,2.45
2023-01-12T19:19:35.392Z,3.22
2023-01-12T19:22:20.828Z,2.47
2023-01-12T19:25:06.205Z,0.82
2023-01-12T19:27:51.242Z,1.60
2023-01-12T19:30:17.735Z,2.38
2023-01-12T19:32:44.114Z,4.70
2023-01-12T19:35:11.632Z,4.43
2023-01-12T19:37:39.686Z,1.88
2023-01-12T19:40:26.143Z,2.42
2023-01-12T19:43:11.904Z,1.90
2023-01-12T19:45:49.473Z,1.60
2023-01-12T19:48:17.323Z,3.55
2023-01-12T19:50:44.812Z,3.05
2023-01-12T19:53:18.337Z,2.60
2023-01-12T19:55:45.135Z,1.75
2023-01-12T19:58:11.885Z,1.08
2023-01-12T20:00:45.037Z,0.60
2023-01-12T20:03:13.375Z,1.17
2023-01-12T20:05:41.449Z,10.52
2023-01-12T20:08:08.727Z,10.07
2023-01-12T20:10:36.942Z,4.40
2023-01-12T20:13:03.942Z,3.05
2023-01-12T20:15:30.437Z,2.05
2023-01-12T20:17:59.904Z,2.50
2023-01-12T20:20:27.608Z,2.50
2023-01-12T20:22:54.453Z,2.42
2023-01-12T20:25:22.612Z,2.05
2023-01-12T20:27:49.763Z,2.95
2023-01-12T20:30:31.964Z,1.58
2023-01-12T20:33:03.107Z,2.15
2023-01-12T20:35:29.494Z,3.63
2023-01-12T20:37:56.058Z,1.85
2023-01-12T20:40:22.386Z,4.13
2023-01-12T20:42:48.838Z,3.35
2023-01-12T20:45:15.200Z,2.33
2023-01-12T20:47:41.709Z,2.00
2023-01-12T20:50:11.665Z,0.77
2023-01-12T20:52:37.988Z,2.83
2023-01-12T20:55:05.438Z,1.80
2023-01-12T20:57:34.809Z,13.05
2023-01-12T21:00:01.248Z,8.30
2023-01-12T21:02:27.627Z,8.98
2023-01-12T21:04:53.999Z,5.57
2023-01-12T21:07:21.759Z,6.47
2023-01-12T21:09:48.352Z,3.30
2023-01-12T21:12:14.647Z,4.25
2023-01-12T21:14:41.043Z,2.22
2023-01-12T21:17:07.953Z,0.88
2023-01-12T21:19:34.604Z,9.30
2023-01-12T21:22:00.956Z,17.50
2023-01-12T21:24:27.893Z,7.30
2023-01-12T21:26:55.644Z,18.83
2023-01-12T21:29:22.657Z,12.00
2023-01-12T21:31:49.120Z,30.45
2023-01-12T21:34:15.684Z,16.58
2023-01-12T21:36:42.068Z,12.57
2023-01-12T21:39:08.444Z,19.55
2023-01-12T21:41:54.760Z,7.88
2023-01-12T21:44:21.105Z,4.22
2023-01-12T21:46:48.852Z,4.28
2023-01-12T21:49:16.406Z,10.45
2023-01-12T21:51:42.895Z,7.18
2023-01-12T21:54:09.378Z,4.35
2023-01-12T21:56:35.716Z,8.32
2023-01-12T21:59:02.066Z,6.43
2023-01-12T22:01:28.709Z,3.53
2023-01-12T22:03:56.940Z,12.60
2023-01-12T22:06:23.362Z,8.75
2023-01-12T22:08:49.700Z,13.80
2023-01-12T22:11:16.777Z,16.17
2023-01-12T22:13:44.075Z,22.60
2023-01-12T22:16:13.689Z,11.75
2023-01-12T22:18:44.368Z,13.25
2023-01-12T22:21:10.944Z,15.95
2023-01-12T22:23:37.975Z,11.05
2023-01-12T22:26:06.894Z,14.43
2023-01-12T22:28:34.286Z,16.13
2023-01-12T22:31:14.133Z,21.50
2023-01-12T22:33:44.589Z,12.25
2023-01-12T22:36:10.978Z,13.52
2023-01-12T22:38:37.282Z,16.10
2023-01-12T22:41:06.277Z,6.93
2023-01-12T22:43:38.550Z,23.48
2023-01-12T22:46:04.981Z,13.75
2023-01-12T22:48:31.297Z,12.93
2023-01-12T22:51:00.281Z,14.13
2023-01-12T22:53:26.630Z,7.45
2023-01-12T22:55:53.039Z,2.95
2023-01-12T22:58:19.352Z,5.47
2023-01-12T23:00:45.722Z,3.85
2023-01-12T23:03:13.512Z,4.68
2023-01-12T23:05:48.592Z,4.88
2023-01-12T23:08:16.185Z,1.65
2023-01-12T23:10:44.044Z,2.38
2023-01-12T23:13:19.597Z,1.67
2023-01-12T23:15:53.303Z,3.08
2023-01-12T23:18:22.441Z,0.60
2023-01-12T23:20:49.269Z,0.50
2023-01-12T23:23:17.935Z,1.48
2023-01-12T23:25:44.776Z,2.28
2023-01-12T23:28:13.134Z,3.60
2023-01-12T23:30:39.985Z,0.90
2023-01-12T23:33:06.333Z,0.82
2023-01-12T23:35:38.914Z,1.08
2023-01-12T23:38:06.397Z,0.95
2023-01-12T23:40:32.742Z,7.65
2023-01-12T23:43:01.358Z,5.15
2023-01-12T23:45:28.051Z,3.15
2023-01-12T23:47:54.417Z,1.38
2023-01-12T23:50:20.781Z,1.42
2023-01-12T23:52:48.910Z,0.75
2023-01-12T23:55:15.679Z,0.73
2023-01-12T23:57:42.092Z,3.67
